TAF Text Data
IDs:
Format:
Raw Decoded Include METAR

Data at: 1537 UTC 24 Aug 2019

KMLI 241132Z 2412/2512 08004KT P6SM SKC
  FM241700 11008KT P6SM FEW040
  FM250100 10005KT P6SM SCT200